Time;durP1;ratioP1;P1;durP2;ratioP2;P2;SDS_P1;SDS_P2;PMS_P1;PMS_P2;Temp;Humidity;BMP_temperature;BMP_pressure;BME280_temperature;BME280_humidity;BME280_pressure;Samples;Min_cycle;Max_cycle;Signal;HPM_P1;HPM_P2
2021/12/30 00:01:00;;;;;;;26.67;3.25;;;8.00;99.90;;;;;;4995825;28;20089;-67
2021/12/30 00:03:26;;;;;;;20.30;3.30;;;8.00;99.90;;;;;;4990981;28;20100;-67
2021/12/30 00:05:53;;;;;;;33.45;4.20;;;8.00;99.90;;;;;;4979581;28;20042;-68
2021/12/30 00:08:21;;;;;;;33.08;5.00;;;8.00;99.90;;;;;;4979741;28;20478;-67
2021/12/30 00:10:47;;;;;;;40.15;4.38;;;8.00;99.90;;;;;;4973792;28;20085;-67
2021/12/30 00:13:13;;;;;;;34.97;4.60;;;8.00;99.90;;;;;;4971355;28;20046;-67
2021/12/30 00:15:40;;;;;;;34.42;4.75;;;7.90;99.90;;;;;;4955078;28;20993;-67
2021/12/30 00:18:07;;;;;;;30.15;4.22;;;7.90;99.90;;;;;;4987794;28;20058;-67
2021/12/30 00:20:34;;;;;;;34.22;4.00;;;7.90;99.90;;;;;;4971142;28;20046;-67
2021/12/30 00:23:03;;;;;;;40.97;4.15;;;7.90;99.90;;;;;;4968726;28;20054;-67
2021/12/30 00:25:37;;;;;;;42.65;4.75;;;7.80;99.90;;;;;;4966934;28;20102;-67
2021/12/30 00:28:03;;;;;;;29.60;3.65;;;7.80;99.90;;;;;;4969237;28;20339;-67
2021/12/30 00:30:28;;;;;;;42.20;5.03;;;7.80;99.90;;;;;;4977007;28;20133;-67
2021/12/30 00:32:54;;;;;;;40.92;4.85;;;7.80;99.90;;;;;;4987115;28;20046;-67
2021/12/30 00:35:21;;;;;;;40.38;4.82;;;7.70;99.90;;;;;;4969342;28;20549;-67
2021/12/30 00:37:47;;;;;;;35.22;4.22;;;7.80;99.90;;;;;;4980120;28;20099;-67
2021/12/30 00:40:13;;;;;;;30.25;4.07;;;7.80;99.90;;;;;;4951225;28;20074;-67
2021/12/30 00:42:39;;;;;;;38.13;4.75;;;7.80;99.90;;;;;;4970165;28;20563;-67
2021/12/30 00:45:05;;;;;;;25.58;3.97;;;7.70;99.90;;;;;;4983637;28;20071;-67
2021/12/30 00:47:31;;;;;;;33.28;4.22;;;7.70;99.90;;;;;;4951320;28;20051;-67
2021/12/30 00:49:56;;;;;;;39.33;4.50;;;7.70;99.90;;;;;;4967406;28;20452;-67
2021/12/30 00:52:24;;;;;;;30.77;3.65;;;7.60;99.90;;;;;;4966606;28;20130;-67
2021/12/30 00:54:51;;;;;;;22.50;3.22;;;7.60;99.90;;;;;;4966623;28;20050;-67
2021/12/30 00:57:16;;;;;;;31.60;4.40;;;7.60;99.90;;;;;;4969166;28;20042;-67
2021/12/30 00:59:42;;;;;;;45.92;5.72;;;7.70;99.90;;;;;;4969406;28;20050;-67
2021/12/30 01:02:08;;;;;;;37.10;5.38;;;7.70;99.90;;;;;;4970848;28;20073;-67
2021/12/30 01:04:34;;;;;;;46.28;6.10;;;7.70;99.90;;;;;;4969604;28;20038;-67
2021/12/30 01:07:00;;;;;;;36.90;5.07;;;7.80;99.90;;;;;;4981657;28;20138;-67
2021/12/30 01:09:26;;;;;;;45.40;5.95;;;7.70;99.90;;;;;;4988376;28;20081;-67
2021/12/30 01:11:53;;;;;;;44.75;4.75;;;7.80;99.90;;;;;;4986558;28;20058;-67
2021/12/30 01:14:23;;;;;;;47.78;5.30;;;7.80;99.90;;;;;;4982467;28;20050;-67
2021/12/30 01:16:54;;;;;;;40.03;5.10;;;7.70;99.90;;;;;;4988975;28;20440;-67
2021/12/30 01:21:48;;;;;;;55.70;7.97;;;7.70;99.90;;;;;;4989447;28;20504;-67
2021/12/30 01:24:14;;;;;;;47.33;6.18;;;7.70;99.90;;;;;;4989447;28;20057;-67
2021/12/30 01:26:39;;;;;;;59.72;6.72;;;7.80;99.90;;;;;;4984826;28;20054;-67
2021/12/30 01:29:06;;;;;;;54.38;5.45;;;7.80;99.90;;;;;;4966512;28;20462;-67
2021/12/30 01:31:32;;;;;;;44.50;5.93;;;7.70;99.90;;;;;;4950944;28;20050;-67
2021/12/30 01:33:58;;;;;;;43.60;6.10;;;7.70;99.90;;;;;;4978913;28;20042;-67
2021/12/30 01:36:26;;;;;;;41.67;5.55;;;7.70;99.90;;;;;;4971492;28;20053;-67
2021/12/30 01:38:52;;;;;;;53.80;6.60;;;7.60;99.90;;;;;;4989064;28;20046;-67
2021/12/30 01:41:18;;;;;;;49.30;6.40;;;7.60;99.90;;;;;;5005364;28;20409;-67
2021/12/30 01:43:45;;;;;;;46.25;6.63;;;7.60;99.90;;;;;;4987913;28;20044;-67
2021/12/30 01:46:11;;;;;;;42.47;6.13;;;7.60;99.90;;;;;;5005018;28;20049;-67
2021/12/30 01:48:37;;;;;;;65.57;7.35;;;7.60;99.90;;;;;;4992572;28;20041;-67
2021/12/30 01:51:05;;;;;;;61.10;7.90;;;7.70;99.90;;;;;;4989368;28;20488;-67
2021/12/30 01:53:33;;;;;;;55.30;5.95;;;7.80;99.90;;;;;;4971504;28;20136;-67
2021/12/30 01:56:00;;;;;;;63.30;9.05;;;7.90;99.90;;;;;;4989013;28;20105;-67
2021/12/30 01:58:26;;;;;;;53.60;6.18;;;7.90;99.90;;;;;;4972065;28;20050;-67
2021/12/30 02:00:52;;;;;;;43.92;5.97;;;7.80;99.90;;;;;;4988296;28;20042;-67
2021/12/30 02:03:19;;;;;;;40.83;5.65;;;7.90;99.90;;;;;;4985623;28;20042;-67
2021/12/30 02:05:45;;;;;;;43.80;5.70;;;7.80;99.90;;;;;;4984823;28;20125;-67
2021/12/30 02:08:15;;;;;;;54.60;6.53;;;7.80;99.90;;;;;;4969689;28;20565;-67
2021/12/30 02:10:41;;;;;;;58.97;7.28;;;7.60;99.90;;;;;;4967981;28;20077;-68
2021/12/30 02:13:09;;;;;;;32.75;3.63;;;7.70;99.90;;;;;;4966403;28;20058;-68
2021/12/30 02:15:34;;;;;;;55.63;6.53;;;7.60;99.90;;;;;;4946324;28;20067;-67
2021/12/30 02:18:01;;;;;;;51.83;6.50;;;7.60;99.90;;;;;;4953226;28;20066;-67
2021/12/30 02:20:45;;;;;;;56.90;6.47;;;7.50;99.90;;;;;;4951972;28;20142;-67
2021/12/30 02:23:18;;;;;;;63.72;6.25;;;7.40;99.90;;;;;;4968483;28;20417;-67
2021/12/30 02:25:44;;;;;;;62.55;6.93;;;7.30;99.90;;;;;;4969645;28;20611;-67
2021/12/30 02:28:12;;;;;;;66.15;6.50;;;7.40;99.90;;;;;;4984044;28;20132;-67
2021/12/30 02:30:39;;;;;;;65.63;7.65;;;7.30;99.90;;;;;;4952436;28;20054;-67
2021/12/30 02:33:05;;;;;;;68.63;7.68;;;7.40;99.90;;;;;;4968476;28;20432;-67
2021/12/30 02:35:31;;;;;;;60.03;7.32;;;7.40;99.90;;;;;;4969203;28;20050;-67
2021/12/30 02:37:57;;;;;;;73.72;7.63;;;7.40;99.90;;;;;;4969079;28;20053;-67
2021/12/30 02:40:31;;;;;;;56.10;8.82;;;7.50;99.90;;;;;;4968583;28;20367;-67
2021/12/30 02:42:57;;;;;;;55.83;6.68;;;7.50;99.90;;;;;;4968608;28;20054;-67
2021/12/30 02:45:23;;;;;;;76.90;8.13;;;7.50;99.90;;;;;;4980263;28;20531;-67
2021/12/30 02:47:49;;;;;;;60.53;6.88;;;7.50;99.90;;;;;;4971344;28;20038;-67
2021/12/30 02:50:15;;;;;;;46.05;5.95;;;7.50;99.90;;;;;;4972035;28;20148;-67
2021/12/30 02:52:40;;;;;;;57.33;7.80;;;7.40;99.90;;;;;;4988487;28;20057;-67
2021/12/30 02:55:06;;;;;;;76.15;7.95;;;7.50;99.90;;;;;;4973209;28;20075;-67
2021/12/30 02:57:32;;;;;;;67.03;7.95;;;7.50;99.90;;;;;;4956010;28;20061;-67
2021/12/30 02:59:58;;;;;;;70.70;7.53;;;7.50;99.90;;;;;;4972009;28;20050;-67
2021/12/30 03:02:24;;;;;;;42.67;6.60;;;7.50;99.90;;;;;;4971477;28;20042;-67
2021/12/30 03:04:49;;;;;;;61.00;8.15;;;7.50;99.90;;;;;;4990056;28;20140;-67
2021/12/30 03:07:18;;;;;;;59.28;7.68;;;7.50;99.90;;;;;;4987750;28;20088;-67
2021/12/30 03:09:47;;;;;;;62.13;7.97;;;7.50;99.90;;;;;;4998614;28;20052;-67
2021/12/30 03:12:13;;;;;;;57.78;7.60;;;7.50;99.90;;;;;;4975693;28;20052;-67
2021/12/30 03:14:40;;;;;;;68.07;8.35;;;7.50;99.90;;;;;;4990833;28;20045;-66
2021/12/30 03:17:06;;;;;;;64.57;7.93;;;7.50;99.90;;;;;;4992144;28;20047;-67
2021/12/30 03:19:33;;;;;;;53.42;6.72;;;7.50;99.90;;;;;;4990159;28;20061;-67
2021/12/30 03:21:59;;;;;;;57.17;7.00;;;7.60;99.90;;;;;;4991548;28;20407;-67
2021/12/30 03:24:25;;;;;;;61.53;7.55;;;7.60;99.90;;;;;;4973987;28;20053;-66
2021/12/30 03:26:51;;;;;;;49.90;5.75;;;7.60;99.90;;;;;;4991507;28;20136;-67
2021/12/30 03:29:16;;;;;;;68.65;7.88;;;7.70;99.90;;;;;;4991375;28;20133;-66
2021/12/30 03:31:42;;;;;;;81.32;8.20;;;7.70;99.90;;;;;;4970668;28;20520;-67
2021/12/30 03:34:08;;;;;;;63.40;8.68;;;7.70;99.90;;;;;;4968439;28;20052;-67
2021/12/30 03:36:34;;;;;;;67.60;7.90;;;7.70;99.90;;;;;;4974614;28;20046;-67
2021/12/30 03:39:01;;;;;;;62.22;7.20;;;7.80;99.90;;;;;;5008799;28;20050;-67
2021/12/30 03:41:28;;;;;;;70.57;8.88;;;7.80;99.90;;;;;;4965549;28;20088;-66
2021/12/30 03:43:56;;;;;;;63.90;7.95;;;7.80;99.90;;;;;;4971610;28;20034;-67
2021/12/30 03:46:22;;;;;;;63.40;7.78;;;7.80;99.90;;;;;;4986340;28;20077;-67
2021/12/30 03:48:48;;;;;;;58.10;7.30;;;7.80;99.90;;;;;;4990570;28;20050;-67
2021/12/30 03:51:25;;;;;;;54.08;7.53;;;7.80;99.90;;;;;;5001602;28;20052;-67
2021/12/30 03:53:56;;;;;;;62.97;9.45;;;7.70;99.90;;;;;;4989950;28;20052;-67
2021/12/30 03:56:25;;;;;;;66.03;9.45;;;7.80;99.90;;;;;;4991350;28;20125;-67
2021/12/30 03:58:50;;;;;;;68.40;10.05;;;7.90;99.90;;;;;;4973692;28;20060;-67
2021/12/30 04:01:19;;;;;;;70.43;8.80;;;7.90;99.90;;;;;;4990539;28;20046;-67
2021/12/30 04:03:46;;;;;;;69.35;9.07;;;7.90;99.90;;;;;;4989914;28;20038;-67
2021/12/30 04:06:12;;;;;;;56.95;8.52;;;7.90;99.90;;;;;;4990038;28;20066;-67
2021/12/30 04:08:38;;;;;;;61.08;8.65;;;7.90;99.90;;;;;;5007799;28;20045;-67
2021/12/30 04:11:04;;;;;;;62.22;8.10;;;7.90;99.90;;;;;;4972662;28;20128;-67
2021/12/30 04:13:31;;;;;;;72.97;9.52;;;7.90;99.90;;;;;;4974836;28;20053;-67
2021/12/30 04:15:57;;;;;;;56.75;8.75;;;7.90;99.90;;;;;;4989156;28;20081;-67
2021/12/30 04:18:23;;;;;;;65.78;10.20;;;8.00;99.90;;;;;;4991169;28;20073;-67
2021/12/30 04:20:49;;;;;;;56.03;9.00;;;8.10;99.90;;;;;;4973292;28;20085;-66
2021/12/30 04:23:15;;;;;;;77.70;11.82;;;8.10;99.90;;;;;;4970979;28;20034;-67
2021/12/30 04:25:41;;;;;;;65.50;10.05;;;8.10;99.90;;;;;;4984580;28;20100;-67
2021/12/30 04:28:07;;;;;;;83.75;10.32;;;8.10;99.90;;;;;;4989245;28;20050;-67
2021/12/30 04:30:33;;;;;;;79.95;10.90;;;8.10;99.90;;;;;;4974681;28;20152;-67
2021/12/30 04:32:59;;;;;;;48.97;9.10;;;8.20;99.90;;;;;;4972482;28;20030;-66
2021/12/30 04:35:25;;;;;;;68.95;9.75;;;8.30;99.90;;;;;;4990586;28;20050;-67
2021/12/30 04:37:51;;;;;;;61.47;11.45;;;8.40;99.90;;;;;;4988826;28;20133;-67
2021/12/30 04:40:17;;;;;;;67.18;9.75;;;8.40;99.90;;;;;;4990766;28;20137;-67
2021/12/30 04:42:43;;;;;;;76.82;10.25;;;8.40;99.90;;;;;;4979977;28;20033;-66
2021/12/30 04:45:11;;;;;;;81.82;11.45;;;8.40;99.90;;;;;;4972503;28;20099;-67
2021/12/30 04:47:38;;;;;;;80.50;11.00;;;8.50;99.90;;;;;;4990421;28;20479;-66
2021/12/30 04:50:10;;;;;;;87.10;11.82;;;8.50;99.90;;;;;;4988598;28;20046;-66
2021/12/30 04:52:36;;;;;;;74.88;11.50;;;8.50;99.90;;;;;;4989447;28;20045;-67
2021/12/30 04:55:03;;;;;;;77.78;11.88;;;8.50;99.90;;;;;;4988092;28;20372;-67
2021/12/30 04:57:29;;;;;;;77.70;12.73;;;8.50;99.90;;;;;;4987367;28;20073;-66
2021/12/30 04:59:55;;;;;;;81.00;11.88;;;8.50;99.90;;;;;;4995585;28;20496;-67
2021/12/30 05:02:22;;;;;;;79.10;13.10;;;8.50;99.90;;;;;;5007037;28;20103;-67
2021/12/30 05:04:48;;;;;;;83.70;11.82;;;8.50;99.90;;;;;;5001118;28;20480;-67
2021/12/30 05:07:14;;;;;;;73.72;12.02;;;8.60;99.90;;;;;;4997725;28;20115;-66
2021/12/30 05:09:40;;;;;;;57.25;9.30;;;8.60;99.90;;;;;;4997426;28;20092;-67
2021/12/30 05:12:06;;;;;;;54.67;7.95;;;8.60;99.90;;;;;;4972045;28;20080;-67
2021/12/30 05:14:32;;;;;;;81.13;11.35;;;8.70;99.90;;;;;;4989602;28;20073;-67
2021/12/30 05:17:02;;;;;;;80.22;10.75;;;8.70;99.90;;;;;;4968959;28;20078;-67
2021/12/30 05:19:29;;;;;;;82.25;11.90;;;8.70;99.90;;;;;;4971480;28;20045;-67
2021/12/30 05:21:55;;;;;;;76.55;11.48;;;8.70;99.90;;;;;;4988753;28;20129;-66
2021/12/30 05:24:21;;;;;;;36.97;5.90;;;8.80;99.90;;;;;;4972296;28;20125;-66
2021/12/30 05:26:46;;;;;;;69.55;9.48;;;8.80;99.90;;;;;;4994745;28;20390;-67
2021/12/30 05:29:13;;;;;;;76.45;11.52;;;8.90;99.90;;;;;;5004481;28;20510;-66
2021/12/30 05:31:38;;;;;;;65.80;9.52;;;9.00;99.90;;;;;;4989645;28;20038;-66
2021/12/30 05:34:04;;;;;;;81.00;13.77;;;9.00;99.90;;;;;;5000569;28;20049;-67
2021/12/30 05:36:30;;;;;;;89.57;15.35;;;9.10;99.90;;;;;;4989198;28;20069;-66
2021/12/30 05:38:56;;;;;;;93.40;14.25;;;9.20;99.90;;;;;;4988450;28;20046;-66
2021/12/30 05:41:25;;;;;;;78.95;13.60;;;9.20;99.90;;;;;;4988499;28;20050;-67
2021/12/30 05:43:51;;;;;;;84.47;13.43;;;9.30;99.90;;;;;;4989071;28;20116;-67
2021/12/30 05:46:17;;;;;;;81.88;13.63;;;9.30;99.90;;;;;;4987686;28;20038;-67
2021/12/30 05:48:43;;;;;;;75.40;12.35;;;9.30;99.90;;;;;;4970328;28;20125;-66
2021/12/30 05:51:08;;;;;;;86.43;13.60;;;9.30;99.90;;;;;;4981142;28;20049;-67
2021/12/30 05:53:34;;;;;;;81.05;12.85;;;9.30;99.90;;;;;;4989293;28;20538;-67
2021/12/30 05:56:00;;;;;;;82.15;14.50;;;9.30;99.90;;;;;;4987938;28;20591;-66
2021/12/30 05:58:26;;;;;;;97.22;16.25;;;9.30;99.90;;;;;;4988449;28;20129;-66
2021/12/30 06:00:52;;;;;;;99.32;15.30;;;9.30;99.90;;;;;;4985237;28;20046;-66
2021/12/30 06:03:19;;;;;;;85.05;13.65;;;9.40;99.90;;;;;;4972139;28;20045;-67
2021/12/30 06:05:49;;;;;;;74.78;15.68;;;9.40;99.90;;;;;;4969689;28;20042;-66
2021/12/30 06:08:16;;;;;;;83.15;14.27;;;9.50;99.90;;;;;;4984403;28;20120;-66
2021/12/30 06:10:43;;;;;;;101.63;18.33;;;9.50;99.90;;;;;;4985561;28;20560;-66
2021/12/30 06:13:09;;;;;;;92.85;17.08;;;9.60;99.90;;;;;;4968466;28;20050;-66
2021/12/30 06:15:36;;;;;;;85.07;17.33;;;9.60;99.90;;;;;;4953353;28;20120;-66
2021/12/30 06:18:01;;;;;;;83.15;17.10;;;9.70;99.90;;;;;;4971779;28;20101;-66
2021/12/30 06:20:28;;;;;;;87.45;15.85;;;9.70;99.90;;;;;;4965491;28;20654;-66
2021/12/30 06:22:53;;;;;;;77.38;14.73;;;9.70;99.90;;;;;;4969754;28;20046;-66
2021/12/30 06:25:22;;;;;;;69.93;14.18;;;9.70;99.90;;;;;;4994105;28;20050;-66
2021/12/30 06:27:48;;;;;;;85.25;14.73;;;9.70;99.90;;;;;;4973226;28;20129;-66
2021/12/30 06:30:14;;;;;;;73.90;14.95;;;9.70;99.90;;;;;;4972564;28;20158;-66
2021/12/30 06:32:40;;;;;;;67.88;12.48;;;9.70;99.90;;;;;;5003204;28;20522;-66
2021/12/30 06:35:08;;;;;;;71.18;12.43;;;9.60;99.90;;;;;;4973098;28;20046;-66
2021/12/30 06:37:36;;;;;;;51.42;11.70;;;9.60;99.90;;;;;;4972351;28;20050;-66
2021/12/30 06:40:03;;;;;;;68.25;12.55;;;9.60;99.90;;;;;;4991023;28;20046;-67
2021/12/30 06:42:28;;;;;;;69.18;13.65;;;9.60;99.90;;;;;;4963891;28;20057;-67
2021/12/30 06:44:54;;;;;;;67.00;13.68;;;9.60;99.90;;;;;;4957197;28;20042;-66
2021/12/30 06:47:20;;;;;;;48.15;12.40;;;9.60;99.90;;;;;;4971457;28;20057;-66
2021/12/30 06:49:45;;;;;;;45.17;11.88;;;9.60;99.90;;;;;;4946675;28;20047;-66
2021/12/30 06:52:12;;;;;;;49.97;11.57;;;9.60;99.90;;;;;;4971763;28;20576;-67
2021/12/30 06:54:39;;;;;;;41.35;10.75;;;9.60;99.90;;;;;;4972156;28;20057;-66
2021/12/30 06:57:06;;;;;;;42.08;10.32;;;9.60;99.90;;;;;;4986174;28;20072;-67
2021/12/30 06:59:35;;;;;;;40.83;11.27;;;9.70;99.90;;;;;;4972411;28;20065;-66
2021/12/30 07:02:01;;;;;;;39.17;10.05;;;9.70;99.90;;;;;;4976481;28;20117;-66
2021/12/30 07:04:27;;;;;;;48.03;9.43;;;9.70;99.90;;;;;;4971609;28;20054;-67
2021/12/30 07:06:53;;;;;;;44.47;9.57;;;9.70;99.90;;;;;;4979980;28;20062;-67
2021/12/30 07:09:20;;;;;;;29.48;8.82;;;9.80;99.90;;;;;;4987776;28;20497;-66
2021/12/30 07:11:48;;;;;;;40.70;10.63;;;9.80;99.90;;;;;;4988397;28;20046;-67
2021/12/30 07:14:17;;;;;;;36.45;10.70;;;9.80;99.90;;;;;;4991239;28;20524;-67
2021/12/30 07:16:43;;;;;;;35.42;7.93;;;9.80;99.90;;;;;;4991316;28;20093;-67
2021/12/30 07:19:09;;;;;;;37.95;10.07;;;9.80;99.90;;;;;;4991483;28;20511;-67
2021/12/30 07:21:34;;;;;;;25.33;10.32;;;9.90;99.90;;;;;;4998211;28;20047;-67
2021/12/30 07:24:00;;;;;;;27.80;8.68;;;9.80;99.90;;;;;;4981905;28;20464;-67
2021/12/30 07:26:26;;;;;;;36.90;10.95;;;9.90;99.90;;;;;;4990545;28;20038;-67
2021/12/30 07:28:51;;;;;;;39.15;11.70;;;9.90;99.90;;;;;;4991687;28;20050;-67
2021/12/30 07:31:17;;;;;;;35.22;11.50;;;10.00;99.90;;;;;;4990565;28;20111;-67
2021/12/30 07:33:43;;;;;;;30.38;11.13;;;10.00;99.90;;;;;;4990260;28;20202;-67
2021/12/30 07:36:09;;;;;;;31.75;11.52;;;10.00;99.90;;;;;;4975339;28;20049;-67
2021/12/30 07:38:35;;;;;;;25.35;9.23;;;10.10;99.90;;;;;;4977044;28;20400;-67
2021/12/30 07:41:00;;;;;;;35.10;11.60;;;10.10;99.90;;;;;;5001771;28;20050;-67
2021/12/30 07:43:26;;;;;;;32.45;10.88;;;10.10;99.90;;;;;;4990085;28;20049;-68
2021/12/30 07:45:52;;;;;;;35.58;11.63;;;10.20;99.90;;;;;;4991792;28;20054;-68
2021/12/30 07:48:18;;;;;;;28.42;11.02;;;10.20;99.90;;;;;;4990304;28;20477;-68
2021/12/30 07:50:44;;;;;;;31.23;12.32;;;10.20;99.90;;;;;;4990396;28;20045;-67
2021/12/30 07:53:10;;;;;;;29.90;10.93;;;10.30;99.90;;;;;;4986092;28;20413;-67
2021/12/30 07:55:36;;;;;;;45.13;13.13;;;10.20;99.90;;;;;;4987523;28;20043;-67
2021/12/30 07:58:02;;;;;;;28.00;10.95;;;10.20;99.90;;;;;;4985018;28;20052;-67
2021/12/30 08:00:28;;;;;;;34.35;12.13;;;10.20;99.90;;;;;;4973434;28;20046;-68
2021/12/30 08:02:53;;;;;;;18.75;8.00;;;10.20;99.90;;;;;;5000056;28;20383;-67
2021/12/30 08:05:20;;;;;;;24.52;9.63;;;10.30;99.90;;;;;;4999880;28;20144;-67
2021/12/30 08:07:47;;;;;;;19.35;8.95;;;10.30;99.90;;;;;;4983137;28;20058;-67
2021/12/30 08:10:16;;;;;;;29.10;11.10;;;10.40;99.90;;;;;;4958921;28;20047;-67
2021/12/30 08:12:43;;;;;;;27.15;10.23;;;10.30;99.90;;;;;;4973963;28;20121;-67
2021/12/30 08:15:10;;;;;;;33.50;10.90;;;10.40;99.90;;;;;;4967124;28;20050;-67
2021/12/30 08:17:36;;;;;;;25.30;10.75;;;10.40;99.90;;;;;;4954419;28;20045;-67
2021/12/30 08:20:04;;;;;;;31.15;10.93;;;10.40;99.90;;;;;;4955787;28;20088;-67
2021/12/30 08:22:30;;;;;;;39.55;12.75;;;10.40;99.90;;;;;;4958391;28;20531;-68
2021/12/30 08:24:55;;;;;;;29.27;11.15;;;10.50;99.90;;;;;;4970983;28;20046;-68
2021/12/30 08:27:21;;;;;;;22.25;6.93;;;10.50;99.90;;;;;;4973937;28;20122;-68
2021/12/30 08:29:48;;;;;;;23.92;9.27;;;10.50;99.90;;;;;;4958601;28;20084;-67
2021/12/30 08:32:16;;;;;;;21.35;8.82;;;10.50;99.90;;;;;;4989017;28;20129;-68
2021/12/30 08:34:43;;;;;;;24.00;8.98;;;10.50;99.90;;;;;;4971865;28;20088;-67
2021/12/30 08:37:11;;;;;;;14.20;6.68;;;10.60;99.90;;;;;;4974475;28;20049;-67
2021/12/30 08:39:38;;;;;;;19.70;6.38;;;10.60;99.90;;;;;;4976421;28;20042;-68
2021/12/30 08:42:06;;;;;;;17.67;7.45;;;10.60;99.90;;;;;;4954617;28;20462;-68
2021/12/30 08:44:32;;;;;;;10.95;6.10;;;10.60;99.90;;;;;;4973095;28;20042;-67
2021/12/30 08:46:57;;;;;;;17.90;7.15;;;10.60;99.90;;;;;;4957830;28;20547;-68
2021/12/30 08:49:24;;;;;;;21.88;8.60;;;10.70;99.90;;;;;;4957723;28;20088;-67
2021/12/30 08:51:49;;;;;;;14.63;6.78;;;10.60;99.90;;;;;;4972719;28;20045;-67
2021/12/30 08:54:15;;;;;;;16.45;6.47;;;10.70;99.90;;;;;;4968434;28;20042;-67
2021/12/30 08:56:46;;;;;;;11.05;5.47;;;10.70;99.90;;;;;;4969413;28;20115;-68
2021/12/30 08:59:13;;;;;;;5.57;4.05;;;10.70;99.90;;;;;;4969299;28;20030;-67
2021/12/30 09:01:39;;;;;;;5.50;3.30;;;10.80;99.90;;;;;;4971535;28;20074;-67
2021/12/30 09:04:04;;;;;;;8.80;4.25;;;10.80;99.90;;;;;;4971238;28;20090;-67
2021/12/30 09:06:30;;;;;;;8.45;3.75;;;10.90;99.90;;;;;;4955731;28;20662;-67
2021/12/30 09:08:56;;;;;;;8.10;3.45;;;11.00;99.90;;;;;;4989366;28;20100;-67
2021/12/30 09:11:22;;;;;;;6.10;3.08;;;11.10;99.90;;;;;;4961078;28;20099;-67
2021/12/30 09:13:47;;;;;;;3.47;2.63;;;11.10;99.90;;;;;;4989533;28;20168;-67
2021/12/30 09:16:13;;;;;;;3.90;1.83;;;11.10;99.90;;;;;;4972269;28;20033;-68
2021/12/30 09:18:40;;;;;;;3.15;0.90;;;11.20;99.90;;;;;;4999441;28;20053;-67
2021/12/30 09:21:06;;;;;;;2.53;1.52;;;11.30;99.90;;;;;;4972927;28;20078;-67
2021/12/30 09:23:31;;;;;;;2.67;1.77;;;11.40;99.90;;;;;;4970509;28;20089;-67
2021/12/30 09:25:57;;;;;;;1.80;1.63;;;11.40;99.90;;;;;;4987302;28;20045;-67
2021/12/30 09:28:24;;;;;;;3.60;2.33;;;11.40;99.90;;;;;;5006227;28;20049;-67
2021/12/30 09:30:50;;;;;;;5.60;2.60;;;11.40;99.90;;;;;;4987203;28;20385;-67
2021/12/30 09:33:16;;;;;;;4.32;2.55;;;11.40;99.90;;;;;;5002283;28;20045;-67
2021/12/30 09:35:47;;;;;;;7.20;2.75;;;11.40;99.90;;;;;;4990635;28;20046;-67
2021/12/30 09:38:14;;;;;;;3.22;1.88;;;11.50;99.90;;;;;;4977387;28;20037;-67
2021/12/30 09:40:40;;;;;;;2.63;1.38;;;11.50;99.90;;;;;;5006212;28;20042;-67
2021/12/30 09:43:09;;;;;;;6.97;3.15;;;11.50;99.90;;;;;;4987269;28;20042;-67
2021/12/30 09:45:39;;;;;;;4.22;1.73;;;11.50;99.90;;;;;;4988493;28;20386;-67
2021/12/30 09:48:07;;;;;;;4.18;1.33;;;11.60;99.90;;;;;;4987772;28;20081;-67
2021/12/30 09:50:38;;;;;;;4.47;1.98;;;11.60;99.90;;;;;;4987873;28;20046;-67
2021/12/30 09:53:05;;;;;;;5.13;2.97;;;11.60;99.90;;;;;;4985018;28;20148;-67
2021/12/30 09:55:31;;;;;;;7.40;2.88;;;11.60;99.90;;;;;;4996855;28;20100;-67
2021/12/30 09:57:57;;;;;;;9.43;3.13;;;11.70;99.90;;;;;;5006043;28;20046;-67
2021/12/30 10:00:23;;;;;;;3.03;1.77;;;11.70;99.90;;;;;;4984260;28;20053;-67
2021/12/30 10:02:50;;;;;;;3.70;1.13;;;11.70;99.90;;;;;;4986043;28;20038;-67
2021/12/30 10:05:22;;;;;;;4.18;1.30;;;11.80;99.90;;;;;;4970749;28;20042;-67
2021/12/30 10:07:48;;;;;;;6.28;2.53;;;11.80;99.90;;;;;;4970029;28;20089;-66
2021/12/30 10:10:35;;;;;;;3.83;0.73;;;11.80;99.90;;;;;;4970607;28;20073;-67
2021/12/30 10:13:24;;;;;;;8.10;1.55;;;11.80;99.90;;;;;;5005073;28;20408;-67
2021/12/30 10:16:04;;;;;;;5.82;1.67;;;11.80;99.90;;;;;;4987777;28;20121;-67
2021/12/30 10:18:42;;;;;;;8.02;2.17;;;11.80;99.90;;;;;;4982898;28;20050;-67
2021/12/30 10:21:35;;;;;;;6.82;2.20;;;11.80;99.90;;;;;;4981608;28;20057;-67
2021/12/30 10:24:06;;;;;;;9.07;1.80;;;11.80;99.90;;;;;;4983645;28;20066;-66
2021/12/30 10:26:51;;;;;;;6.40;1.42;;;11.90;99.90;;;;;;4986689;28;20109;-67
2021/12/30 10:29:17;;;;;;;3.42;0.95;;;11.90;99.90;;;;;;4987456;28;20108;-67
2021/12/30 10:31:50;;;;;;;3.20;0.90;;;11.90;99.90;;;;;;4971415;28;20052;-67
2021/12/30 10:34:19;;;;;;;3.47;1.05;;;11.90;99.90;;;;;;4987927;28;20042;-67
2021/12/30 10:36:47;;;;;;;6.18;1.75;;;11.90;99.90;;;;;;4968680;28;20476;-68
2021/12/30 10:39:29;;;;;;;8.25;2.15;;;11.90;99.90;;;;;;4987074;28;20046;-67
2021/12/30 10:42:04;;;;;;;10.90;2.28;;;11.90;99.90;;;;;;4988187;28;20058;-67
2021/12/30 10:44:49;;;;;;;14.40;2.28;;;11.90;99.90;;;;;;4984568;28;20038;-67
2021/12/30 10:47:16;;;;;;;9.15;1.67;;;11.90;99.90;;;;;;4976748;28;20050;-66
2021/12/30 10:49:42;;;;;;;16.02;2.70;;;12.00;99.90;;;;;;4989395;28;20050;-67
2021/12/30 10:52:07;;;;;;;7.68;1.30;;;12.00;99.90;;;;;;5000319;28;20052;-67
2021/12/30 10:54:39;;;;;;;9.48;2.22;;;12.00;99.90;;;;;;5002195;28;20126;-67
2021/12/30 10:57:09;;;;;;;10.32;1.85;;;12.00;99.90;;;;;;4986748;28;20515;-67
2021/12/30 10:59:41;;;;;;;5.43;1.70;;;12.00;99.90;;;;;;5002563;28;20390;-66
2021/12/30 11:02:17;;;;;;;11.10;2.15;;;12.00;99.90;;;;;;4987138;28;20543;-67
2021/12/30 11:04:56;;;;;;;10.60;1.95;;;11.90;99.90;;;;;;4988716;28;20054;-67
2021/12/30 11:07:40;;;;;;;10.88;2.60;;;12.00;99.90;;;;;;4963065;28;20096;-67
2021/12/30 11:10:07;;;;;;;10.35;1.95;;;12.00;99.90;;;;;;4998151;28;20165;-67
2021/12/30 11:12:38;;;;;;;18.35;3.00;;;12.00;99.90;;;;;;5004960;28;20264;-67
2021/12/30 11:15:19;;;;;;;16.52;3.05;;;12.00;99.90;;;;;;4990930;28;20412;-67
2021/12/30 11:17:44;;;;;;;12.98;2.70;;;12.00;99.90;;;;;;4990876;28;20139;-67
2021/12/30 11:20:11;;;;;;;2.50;0.68;;;12.00;99.90;;;;;;4991726;28;20100;-67
2021/12/30 11:22:39;;;;;;;7.78;1.85;;;12.00;99.90;;;;;;4958387;28;20399;-67
2021/12/30 11:25:10;;;;;;;7.93;1.70;;;12.00;99.90;;;;;;4992205;28;20493;-67
2021/12/30 11:27:36;;;;;;;9.27;1.35;;;12.00;99.90;;;;;;4973521;28;20046;-67
2021/12/30 11:30:11;;;;;;;14.73;3.10;;;12.00;99.90;;;;;;4990315;28;20409;-67
2021/12/30 11:32:37;;;;;;;10.77;1.73;;;12.00;99.90;;;;;;4988577;28;20180;-66
2021/12/30 11:35:06;;;;;;;20.30;2.83;;;12.00;99.90;;;;;;4991360;28;20481;-67
2021/12/30 11:37:33;;;;;;;7.97;1.17;;;12.00;99.90;;;;;;4989999;28;20328;-67
2021/12/30 11:40:00;;;;;;;13.75;2.92;;;12.00;99.90;;;;;;4988591;28;20053;-67
2021/12/30 11:42:47;;;;;;;22.48;3.97;;;12.00;99.90;;;;;;4991443;28;20041;-66
2021/12/30 11:45:22;;;;;;;2.00;0.98;;;11.90;99.90;;;;;;4963354;28;20399;-67
2021/12/30 11:47:48;;;;;;;13.90;2.45;;;12.00;99.90;;;;;;4990190;28;20079;-67
2021/12/30 11:50:29;;;;;;;18.50;3.33;;;12.00;99.90;;;;;;4973988;28;20044;-67
2021/12/30 11:53:08;;;;;;;22.00;3.20;;;12.00;99.90;;;;;;4990310;28;20121;-67
2021/12/30 11:55:54;;;;;;;15.00;2.78;;;12.00;99.90;;;;;;4979476;28;20049;-67
2021/12/30 11:58:32;;;;;;;8.55;1.65;;;11.90;99.90;;;;;;4989728;28;20441;-67
2021/12/30 12:01:12;;;;;;;6.55;1.92;;;11.90;99.90;;;;;;5007186;28;20500;-68
2021/12/30 12:04:03;;;;;;;13.88;2.97;;;11.90;99.90;;;;;;4989337;28;20081;-67
2021/12/30 12:06:34;;;;;;;3.47;1.38;;;11.90;99.90;;;;;;4988531;28;20077;-66
2021/12/30 12:09:18;;;;;;;3.42;1.10;;;11.90;99.90;;;;;;4988402;28;20432;-67
2021/12/30 12:11:49;;;;;;;7.97;1.67;;;11.90;99.90;;;;;;4987068;28;20042;-66
2021/12/30 12:14:27;;;;;;;12.32;2.63;;;11.90;99.90;;;;;;4988603;28;20049;-66
2021/12/30 12:17:17;;;;;;;2.92;1.42;;;11.90;99.90;;;;;;4988998;28;20574;-67
2021/12/30 12:19:47;;;;;;;26.90;4.30;;;11.90;99.90;;;;;;4985402;28;20109;-67
2021/12/30 12:22:19;;;;;;;34.50;4.97;;;12.00;99.90;;;;;;4971936;28;20053;-67
2021/12/30 12:24:50;;;;;;;12.23;2.58;;;11.90;99.90;;;;;;4987094;28;20056;-67
2021/12/30 12:27:19;;;;;;;19.80;3.80;;;11.90;99.90;;;;;;4988031;28;20076;-67
2021/12/30 12:30:06;;;;;;;23.48;4.43;;;12.00;99.90;;;;;;4986897;28;20053;-67
2021/12/30 12:32:34;;;;;;;31.60;2.55;;;12.00;99.90;;;;;;4987670;28;20404;-66
2021/12/30 12:35:18;;;;;;;15.93;3.55;;;12.00;99.90;;;;;;5005522;28;20048;-67
2021/12/30 12:37:48;;;;;;;26.10;4.13;;;12.00;99.90;;;;;;4973013;28;20042;-67
2021/12/30 12:40:25;;;;;;;32.70;5.05;;;12.00;99.90;;;;;;5003729;28;20099;-67
2021/12/30 12:42:53;;;;;;;15.68;2.78;;;12.00;99.90;;;;;;4986438;28;20058;-67
2021/12/30 12:45:36;;;;;;;34.08;5.25;;;12.00;99.90;;;;;;4988657;28;20145;-67
2021/12/30 12:48:17;;;;;;;27.13;3.88;;;12.00;99.90;;;;;;4988307;28;20124;-67